createdAt,value
2019-04-06T00:02:19.333Z,99.90
2019-04-06T00:04:48.092Z,99.90
2019-04-06T00:07:16.990Z,99.90
2019-04-06T00:09:45.767Z,99.90
2019-04-06T00:12:14.586Z,99.90
2019-04-06T00:14:43.400Z,99.90
2019-04-06T00:17:12.161Z,99.90
2019-04-06T00:19:40.898Z,99.90
2019-04-06T00:22:09.741Z,99.90
2019-04-06T00:24:38.503Z,99.90
2019-04-06T00:27:07.274Z,99.90
2019-04-06T00:29:36.031Z,99.90
2019-04-06T00:32:16.890Z,99.90
2019-04-06T00:34:45.634Z,99.90
2019-04-06T00:37:14.386Z,99.90
2019-04-06T00:39:43.134Z,99.90
2019-04-06T00:42:11.898Z,99.90
2019-04-06T00:44:40.650Z,99.90
2019-04-06T00:47:09.480Z,99.90
2019-04-06T00:49:38.296Z,99.90
2019-04-06T00:52:08.363Z,99.90
2019-04-06T00:54:37.108Z,99.90
2019-04-06T00:57:05.873Z,99.90
2019-04-06T00:59:34.642Z,99.90
2019-04-06T01:02:04.268Z,99.90
2019-04-06T01:04:33.045Z,99.90
2019-04-06T01:07:02.078Z,99.90
2019-04-06T01:09:31.085Z,99.90
2019-04-06T01:12:00.062Z,99.90
2019-04-06T01:14:29.226Z,99.90
2019-04-06T01:16:57.987Z,99.90
2019-04-06T01:19:26.732Z,99.90
2019-04-06T01:21:55.558Z,99.90
2019-04-06T01:24:24.305Z,99.90
2019-04-06T01:26:53.051Z,99.90
2019-04-06T01:29:21.960Z,99.90
2019-04-06T01:31:50.701Z,99.90
2019-04-06T01:34:19.460Z,99.90
2019-04-06T01:36:48.210Z,99.90
2019-04-06T01:39:16.986Z,99.90
2019-04-06T01:41:45.730Z,99.90
2019-04-06T01:44:14.645Z,99.90
2019-04-06T01:46:43.435Z,99.90
2019-04-06T01:49:12.184Z,99.90
2019-04-06T01:51:40.939Z,99.90
2019-04-06T01:54:09.698Z,99.90
2019-04-06T01:56:38.458Z,99.90
2019-04-06T01:59:07.229Z,99.90
2019-04-06T02:01:43.135Z,99.90
2019-04-06T02:04:11.903Z,99.90
2019-04-06T02:06:40.723Z,99.90
2019-04-06T02:09:09.511Z,99.90
2019-04-06T02:11:38.417Z,99.90
2019-04-06T02:14:07.193Z,99.90
2019-04-06T02:16:35.958Z,99.90
2019-04-06T02:19:04.807Z,99.90
2019-04-06T02:21:33.553Z,99.90
2019-04-06T02:24:02.318Z,99.90
2019-04-06T02:26:31.313Z,99.90
2019-04-06T02:29:00.294Z,99.90
2019-04-06T02:31:47.139Z,99.90
2019-04-06T02:34:37.765Z,99.90
2019-04-06T02:37:15.453Z,99.90
2019-04-06T02:40:12.197Z,99.90
2019-04-06T02:42:46.110Z,99.90
2019-04-06T02:45:14.965Z,99.90
2019-04-06T02:47:44.203Z,99.90
2019-04-06T02:50:13.334Z,99.90
2019-04-06T02:52:42.141Z,99.90
2019-04-06T02:55:11.319Z,99.90
2019-04-06T02:57:40.070Z,99.90
2019-04-06T03:00:10.171Z,99.90
2019-04-06T03:02:39.019Z,99.90
2019-04-06T03:05:08.604Z,99.90
2019-04-06T03:07:37.659Z,99.90
2019-04-06T03:10:06.891Z,99.90
2019-04-06T03:12:35.951Z,99.90
2019-04-06T03:15:05.772Z,99.90
2019-04-06T03:17:34.579Z,99.90
2019-04-06T03:20:03.562Z,99.90
2019-04-06T03:22:32.321Z,99.90
2019-04-06T03:25:01.282Z,99.90
2019-04-06T03:27:30.219Z,99.90
2019-04-06T03:30:00.443Z,99.90
2019-04-06T03:32:29.215Z,99.90
2019-04-06T03:34:58.004Z,99.90
2019-04-06T03:37:26.819Z,99.90
2019-04-06T03:39:55.751Z,99.90
2019-04-06T03:42:24.605Z,99.90
2019-04-06T03:44:53.358Z,99.90
2019-04-06T03:47:22.145Z,99.90
2019-04-06T03:49:50.961Z,99.90
2019-04-06T03:52:19.727Z,99.90
2019-04-06T03:54:48.469Z,99.90
2019-04-06T03:57:17.307Z,99.90
2019-04-06T03:59:46.102Z,99.90
2019-04-06T04:02:14.902Z,99.90
2019-04-06T04:04:44.434Z,99.90
2019-04-06T04:07:13.187Z,99.90
2019-04-06T04:09:41.960Z,99.90
2019-04-06T04:12:10.736Z,99.90
2019-04-06T04:14:39.496Z,99.90
2019-04-06T04:17:08.384Z,99.90
2019-04-06T04:19:37.274Z,99.90
2019-04-06T04:22:06.140Z,99.90
2019-04-06T04:24:34.984Z,99.90
2019-04-06T04:27:04.445Z,99.90
2019-04-06T04:29:33.198Z,99.90
2019-04-06T04:32:01.956Z,99.90
2019-04-06T04:34:30.748Z,99.90
2019-04-06T04:36:59.764Z,99.90
2019-04-06T04:39:28.589Z,99.90
2019-04-06T04:41:57.342Z,99.90
2019-04-06T04:44:26.196Z,99.90
2019-04-06T04:46:56.371Z,99.90
2019-04-06T04:49:25.160Z,99.90
2019-04-06T04:51:53.926Z,99.90
2019-04-06T04:54:22.680Z,99.90
2019-04-06T04:56:51.624Z,99.90
2019-04-06T04:59:20.454Z,99.90
2019-04-06T05:01:49.320Z,99.90
2019-04-06T05:04:18.402Z,99.90
2019-04-06T05:06:47.516Z,99.90
2019-04-06T05:09:16.547Z,99.90
2019-04-06T05:11:45.293Z,99.90
2019-04-06T05:14:49.953Z,99.90
2019-04-06T05:17:18.952Z,99.90
2019-04-06T05:19:47.716Z,99.90
2019-04-06T05:22:16.461Z,99.90
2019-04-06T05:24:45.232Z,99.90
2019-04-06T05:27:13.988Z,99.90
2019-04-06T05:29:42.745Z,99.90
2019-04-06T05:32:11.553Z,99.90
2019-04-06T05:34:40.425Z,99.90
2019-04-06T05:37:09.282Z,99.90
2019-04-06T05:39:38.159Z,99.90
2019-04-06T05:42:07.262Z,99.90
2019-04-06T05:44:36.046Z,99.90
2019-04-06T05:47:04.971Z,99.90
2019-04-06T05:49:33.850Z,99.90
2019-04-06T05:52:02.844Z,99.90
2019-04-06T05:54:31.836Z,99.90
2019-04-06T05:57:00.598Z,99.90
2019-04-06T05:59:29.323Z,99.90
2019-04-06T06:01:58.130Z,99.90
2019-04-06T06:04:27.055Z,99.90
2019-04-06T06:06:55.918Z,99.90
2019-04-06T06:09:24.691Z,99.90
2019-04-06T06:11:55.898Z,99.90
2019-04-06T06:14:24.869Z,99.90
2019-04-06T06:16:53.665Z,99.90
2019-04-06T06:19:22.869Z,99.90
2019-04-06T06:21:51.859Z,99.90
2019-04-06T06:24:20.597Z,99.90
2019-04-06T06:26:50.244Z,99.90
2019-04-06T06:29:19.006Z,99.90
2019-04-06T06:31:47.874Z,99.90
2019-04-06T06:34:16.645Z,99.90
2019-04-06T06:36:45.410Z,99.90
2019-04-06T06:39:14.165Z,99.90
2019-04-06T06:41:43.191Z,99.90
2019-04-06T06:44:12.114Z,99.90
2019-04-06T06:46:40.876Z,99.90
2019-04-06T06:49:09.628Z,99.90
2019-04-06T06:51:38.390Z,99.90
2019-04-06T06:54:07.529Z,99.90
2019-04-06T06:56:36.620Z,99.90
2019-04-06T06:59:05.529Z,99.90
2019-04-06T07:01:34.273Z,99.90
2019-04-06T07:04:03.020Z,99.90
2019-04-06T07:06:31.778Z,99.90
2019-04-06T07:09:00.534Z,99.90
2019-04-06T07:11:29.363Z,99.90
2019-04-06T07:13:58.139Z,99.90
2019-04-06T07:16:27.500Z,99.90
2019-04-06T07:18:56.244Z,99.90
2019-04-06T07:21:25.002Z,99.90
2019-04-06T07:23:53.741Z,99.90
2019-04-06T07:26:22.505Z,99.90
2019-04-06T07:28:51.493Z,99.90
2019-04-06T07:31:20.378Z,99.90
2019-04-06T07:33:49.149Z,99.90
2019-04-06T07:36:17.974Z,99.90
2019-04-06T07:38:46.745Z,99.90
2019-04-06T07:41:15.519Z,99.90
2019-04-06T07:43:44.288Z,99.90
2019-04-06T07:46:13.061Z,99.90
2019-04-06T07:48:41.856Z,99.90
2019-04-06T07:51:10.611Z,99.90
2019-04-06T07:53:39.503Z,99.90
2019-04-06T07:56:08.322Z,99.90
2019-04-06T07:58:48.039Z,99.90
2019-04-06T08:01:07.734Z,98.40
2019-04-06T08:03:36.494Z,99.50
2019-04-06T08:06:06.593Z,97.30
2019-04-06T08:08:35.491Z,97.80
2019-04-06T08:11:04.407Z,98.20
2019-04-06T08:13:33.343Z,99.60
2019-04-06T08:16:02.179Z,98.10
2019-04-06T08:18:30.931Z,96.80
2019-04-06T08:20:59.703Z,96.10
2019-04-06T08:23:28.670Z,93.10
2019-04-06T08:25:57.600Z,95.20
2019-04-06T08:28:26.369Z,97.30
2019-04-06T08:30:55.127Z,94.90
2019-04-06T08:33:24.502Z,94.70
2019-04-06T08:35:53.260Z,94.00
2019-04-06T08:38:22.051Z,92.20
2019-04-06T08:40:50.821Z,92.20
2019-04-06T08:43:19.594Z,90.00
2019-04-06T08:45:48.354Z,85.80
2019-04-06T08:48:17.102Z,89.20
2019-04-06T08:50:46.355Z,86.20
2019-04-06T08:53:15.257Z,84.80
2019-04-06T08:55:44.576Z,87.90
2019-04-06T08:58:13.546Z,88.50
2019-04-06T09:00:42.436Z,87.10
2019-04-06T09:03:11.353Z,84.50
2019-04-06T09:05:40.142Z,84.10
2019-04-06T09:08:08.991Z,78.70
2019-04-06T09:10:37.834Z,77.70
2019-04-06T09:13:06.724Z,77.30
2019-04-06T09:15:35.688Z,76.40
2019-04-06T09:18:04.515Z,68.50
2019-04-06T09:20:33.274Z,66.90
2019-04-06T09:23:02.108Z,69.50
2019-04-06T09:25:30.949Z,66.90
2019-04-06T09:27:59.786Z,65.40
2019-04-06T09:30:29.020Z,62.00
2019-04-06T09:32:57.818Z,60.00
2019-04-06T09:35:26.615Z,60.30
2019-04-06T09:37:55.489Z,59.00
2019-04-06T09:40:24.703Z,55.10
2019-04-06T09:42:53.714Z,58.50
2019-04-06T09:45:34.476Z,56.60
2019-04-06T09:48:12.842Z,54.40
2019-04-06T09:51:09.432Z,51.00
2019-04-06T09:54:05.522Z,51.60
2019-04-06T09:56:39.358Z,50.60
2019-04-06T09:59:40.524Z,57.30
2019-04-06T10:02:28.435Z,55.50
2019-04-06T10:05:08.881Z,53.50
2019-04-06T10:07:56.756Z,54.60
2019-04-06T10:10:53.981Z,51.70
2019-04-06T10:13:34.325Z,48.90
2019-04-06T10:16:18.109Z,49.40
2019-04-06T10:18:56.579Z,52.40
2019-04-06T10:21:49.728Z,50.10
2019-04-06T10:24:37.912Z,48.00
2019-04-06T10:27:38.094Z,51.10
2019-04-06T10:30:26.866Z,52.20
2019-04-06T10:33:27.619Z,49.60
2019-04-06T10:36:25.658Z,51.40
2019-04-06T10:39:17.124Z,51.60
2019-04-06T10:42:11.771Z,53.40
2019-04-06T10:44:50.097Z,52.90
2019-04-06T10:47:48.039Z,53.60
2019-04-06T10:50:14.903Z,52.00
2019-04-06T10:52:52.542Z,53.70
2019-04-06T10:55:40.880Z,56.00
2019-04-06T10:58:39.940Z,56.70
2019-04-06T11:01:43.401Z,56.10
2019-04-06T11:04:35.659Z,55.80
2019-04-06T11:07:12.459Z,54.90
2019-04-06T11:10:00.577Z,56.50
2019-04-06T11:12:48.488Z,55.80
2019-04-06T11:15:35.041Z,60.00
2019-04-06T11:18:32.959Z,62.40
2019-04-06T11:21:19.834Z,60.90
2019-04-06T11:23:58.197Z,59.70
2019-04-06T11:26:34.158Z,59.40
2019-04-06T11:29:22.339Z,56.40
2019-04-06T11:32:10.694Z,57.60
2019-04-06T11:34:58.936Z,59.60
2019-04-06T11:37:38.921Z,58.10
2019-04-06T11:40:28.246Z,57.60
2019-04-06T11:43:08.789Z,55.70
2019-04-06T11:45:55.307Z,55.70
2019-04-06T11:48:49.033Z,57.60
2019-04-06T11:51:42.282Z,58.00
2019-04-06T11:54:22.160Z,56.30
2019-04-06T11:57:04.775Z,56.60
2019-04-06T11:59:51.298Z,55.10
2019-04-06T12:02:36.241Z,54.10
2019-04-06T12:05:12.402Z,53.60
2019-04-06T12:08:12.517Z,49.60
2019-04-06T12:11:06.798Z,52.00
2019-04-06T12:13:47.566Z,53.60
2019-04-06T12:16:28.874Z,52.60
2019-04-06T12:19:05.119Z,53.10
2019-04-06T12:21:58.598Z,57.60
2019-04-06T12:24:45.558Z,58.50
2019-04-06T12:27:39.539Z,60.60
2019-04-06T12:30:19.236Z,59.60
2019-04-06T12:33:02.753Z,63.10
2019-04-06T12:35:50.820Z,65.10
2019-04-06T12:38:37.258Z,67.50
2019-04-06T12:41:37.237Z,70.50
2019-04-06T12:44:34.239Z,74.40
2019-04-06T12:47:13.078Z,77.20
2019-04-06T12:49:57.571Z,77.00
2019-04-06T12:53:00.354Z,78.90
2019-04-06T12:55:49.699Z,79.70
2019-04-06T12:58:28.333Z,79.80
2019-04-06T13:01:19.038Z,81.10
2019-04-06T13:04:13.121Z,80.70
2019-04-06T13:07:14.338Z,82.20
2019-04-06T13:10:04.102Z,82.60
2019-04-06T13:12:51.953Z,79.90
2019-04-06T13:15:42.221Z,81.80
2019-04-06T13:18:36.423Z,82.70
2019-04-06T13:21:24.141Z,83.00
2019-04-06T13:24:07.544Z,83.90
2019-04-06T13:27:07.723Z,82.10
2019-04-06T13:29:54.436Z,83.60
2019-04-06T13:32:42.590Z,84.30
2019-04-06T13:35:40.077Z,83.30
2019-04-06T13:38:31.708Z,85.90
2019-04-06T13:41:09.027Z,83.90
2019-04-06T13:44:03.383Z,84.60
2019-04-06T13:46:56.362Z,87.90
2019-04-06T13:49:44.506Z,86.50
2019-04-06T13:52:27.911Z,85.10
2019-04-06T13:55:07.531Z,84.30
2019-04-06T13:57:42.185Z,86.00
2019-04-06T14:00:18.305Z,85.00
2019-04-06T14:02:59.553Z,85.50
2019-04-06T14:06:05.593Z,87.20
2019-04-06T14:08:46.688Z,85.40
2019-04-06T14:11:25.033Z,84.10
2019-04-06T14:14:16.054Z,83.80
2019-04-06T14:17:10.122Z,83.30
2019-04-06T14:19:49.389Z,83.80
2019-04-06T14:25:15.055Z,81.90
2019-04-06T14:28:01.128Z,80.80
2019-04-06T14:30:48.988Z,81.40
2019-04-06T14:33:31.039Z,82.30
2019-04-06T14:36:32.314Z,81.40
2019-04-06T14:41:57.638Z,80.30
2019-04-06T14:44:48.917Z,80.40
2019-04-06T14:47:35.584Z,81.10
2019-04-06T14:50:27.406Z,82.20
2019-04-06T14:53:33.673Z,81.20
2019-04-06T14:56:36.513Z,80.20
2019-04-06T14:59:23.480Z,81.50
2019-04-06T15:02:06.048Z,82.00
2019-04-06T15:04:52.967Z,79.80
2019-04-06T15:07:42.818Z,78.70
2019-04-06T15:10:28.973Z,77.70
2019-04-06T15:13:08.302Z,75.50
2019-04-06T15:15:55.391Z,75.00
2019-04-06T15:18:42.161Z,75.20
2019-04-06T15:21:28.688Z,77.40
2019-04-06T15:24:14.430Z,77.00
2019-04-06T15:27:11.511Z,77.30
2019-04-06T15:29:53.096Z,75.50
2019-04-06T15:32:43.862Z,76.60
2019-04-06T15:35:27.254Z,78.90
2019-04-06T15:38:01.466Z,80.20
2019-04-06T15:40:47.994Z,80.50
2019-04-06T15:43:34.234Z,79.90
2019-04-06T15:46:26.796Z,79.80
2019-04-06T15:49:17.101Z,79.10
2019-04-06T15:52:10.694Z,80.80
2019-04-06T15:54:45.875Z,79.50
2019-04-06T15:57:19.393Z,79.20
2019-04-06T15:59:54.500Z,80.10
2019-04-06T16:02:33.033Z,80.10
2019-04-06T16:05:17.642Z,79.60
2019-04-06T16:08:12.185Z,80.70
2019-04-06T16:11:04.662Z,82.70
2019-04-06T16:13:42.693Z,81.80
2019-04-06T16:16:18.186Z,82.30
2019-04-06T16:18:59.684Z,82.70
2019-04-06T16:22:02.497Z,83.90
2019-04-06T16:25:04.308Z,83.30
2019-04-06T16:27:50.721Z,84.00
2019-04-06T16:30:39.246Z,83.10
2019-04-06T16:33:13.416Z,85.00
2019-04-06T16:36:00.933Z,83.80
2019-04-06T16:38:42.202Z,84.00
2019-04-06T16:41:30.075Z,86.00
2019-04-06T16:44:13.354Z,86.10
2019-04-06T16:47:10.418Z,86.40
2019-04-06T16:50:01.725Z,87.30
2019-04-06T16:52:57.834Z,87.00
2019-04-06T16:55:45.863Z,88.70
2019-04-06T16:58:28.711Z,85.90
2019-04-06T17:01:19.666Z,86.40
2019-04-06T17:04:01.216Z,85.80
2019-04-06T17:06:41.137Z,86.40
2019-04-06T17:09:20.702Z,86.70
2019-04-06T17:12:09.871Z,87.30
2019-04-06T17:15:05.187Z,88.30
2019-04-06T17:17:53.520Z,90.10
2019-04-06T17:20:40.186Z,91.10
2019-04-06T17:23:30.921Z,91.90
2019-04-06T17:26:26.100Z,92.80
2019-04-06T17:29:18.947Z,93.10
2019-04-06T17:31:52.648Z,93.70
2019-04-06T17:34:30.409Z,94.40
2019-04-06T17:37:20.232Z,95.00
2019-04-06T17:40:03.094Z,96.00
2019-04-06T17:42:39.056Z,96.40
2019-04-06T17:45:26.586Z,96.70
2019-04-06T17:48:07.516Z,97.30
2019-04-06T17:50:54.538Z,97.50
2019-04-06T17:53:41.482Z,98.00
2019-04-06T17:56:29.502Z,98.00
2019-04-06T17:59:16.920Z,98.30
2019-04-06T18:02:04.257Z,99.10
2019-04-06T18:04:52.054Z,99.00
2019-04-06T18:08:09.815Z,99.00
2019-04-06T18:11:00.171Z,99.10
2019-04-06T18:13:54.021Z,99.20
2019-04-06T18:16:25.642Z,99.50
2019-04-06T18:18:54.425Z,99.90
2019-04-06T18:21:23.598Z,99.90
2019-04-06T18:23:53.041Z,99.90
2019-04-06T18:26:21.960Z,99.90
2019-04-06T18:28:50.944Z,99.90
2019-04-06T18:31:48.320Z,99.90
2019-04-06T18:34:17.674Z,99.90
2019-04-06T18:37:09.024Z,99.90
2019-04-06T18:39:38.224Z,99.90
2019-04-06T18:42:07.460Z,99.90
2019-04-06T18:44:36.391Z,99.90
2019-04-06T18:47:05.342Z,99.90
2019-04-06T18:49:34.161Z,99.90
2019-04-06T18:52:02.955Z,99.90
2019-04-06T18:54:31.815Z,99.90
2019-04-06T18:57:00.644Z,99.90
2019-04-06T18:59:29.456Z,99.90
2019-04-06T19:01:58.860Z,99.90
2019-04-06T19:04:28.073Z,99.90
2019-04-06T19:06:57.339Z,99.90
2019-04-06T19:09:26.194Z,99.90
2019-04-06T19:11:57.071Z,99.90
2019-04-06T19:14:25.909Z,99.90
2019-04-06T19:16:54.904Z,99.90
2019-04-06T19:19:23.710Z,99.90
2019-04-06T19:21:52.480Z,99.90
2019-04-06T19:24:21.393Z,99.90
2019-04-06T19:26:50.384Z,99.90
2019-04-06T19:29:21.664Z,99.90
2019-04-06T19:31:51.556Z,99.90
2019-04-06T19:34:20.679Z,99.90
2019-04-06T19:36:50.978Z,99.90
2019-04-06T19:39:20.810Z,99.90
2019-04-06T19:41:49.919Z,99.90
2019-04-06T19:44:18.754Z,99.90
2019-04-06T19:46:47.874Z,99.90
2019-04-06T19:49:16.722Z,99.90
2019-04-06T19:51:45.509Z,99.90
2019-04-06T19:54:14.300Z,99.90
2019-04-06T19:56:43.066Z,99.90
2019-04-06T19:59:13.582Z,99.90
2019-04-06T20:01:42.679Z,99.90
2019-04-06T20:04:11.613Z,99.90
2019-04-06T20:06:40.399Z,99.90
2019-04-06T20:09:09.725Z,99.90
2019-04-06T20:11:38.489Z,99.90
2019-04-06T20:14:07.317Z,99.90
2019-04-06T20:16:36.082Z,99.90
2019-04-06T20:19:05.186Z,99.90
2019-04-06T20:21:34.127Z,99.90
2019-04-06T20:24:04.022Z,99.90
2019-04-06T20:26:33.156Z,99.90
2019-04-06T20:29:02.328Z,99.90
2019-04-06T20:31:31.541Z,99.90
2019-04-06T20:34:01.856Z,99.90
2019-04-06T20:36:30.698Z,99.90
2019-04-06T20:38:59.547Z,99.90
2019-04-06T20:41:28.412Z,99.90
2019-04-06T20:43:57.200Z,99.90
2019-04-06T20:46:25.976Z,99.90
2019-04-06T20:48:54.758Z,99.90
2019-04-06T20:51:31.652Z,99.90
2019-04-06T20:54:46.445Z,99.90
2019-04-06T20:57:11.215Z,99.90
2019-04-06T20:59:40.436Z,99.90
2019-04-06T21:02:09.518Z,99.90
2019-04-06T21:04:38.551Z,99.90
2019-04-06T21:07:07.798Z,99.90
2019-04-06T21:09:37.414Z,99.90
2019-04-06T21:14:35.043Z,99.90
2019-04-06T21:17:04.492Z,99.90
2019-04-06T21:19:33.835Z,99.90
2019-04-06T21:22:02.785Z,99.90
2019-04-06T21:24:31.744Z,99.90
2019-04-06T21:27:00.615Z,99.90
2019-04-06T21:29:29.375Z,99.90
2019-04-06T21:31:58.535Z,99.90
2019-04-06T21:34:28.042Z,99.90
2019-04-06T21:36:57.508Z,99.90
2019-04-06T21:39:26.893Z,99.90
2019-04-06T21:41:56.507Z,99.90
2019-04-06T21:44:25.591Z,99.90
2019-04-06T21:46:54.766Z,99.90
2019-04-06T21:49:24.138Z,99.90
2019-04-06T21:51:53.034Z,99.90
2019-04-06T21:54:24.225Z,99.90
2019-04-06T21:56:54.477Z,99.90
2019-04-06T21:59:24.499Z,99.90
2019-04-06T22:01:53.648Z,99.90
2019-04-06T22:04:26.241Z,99.90
2019-04-06T22:06:53.154Z,99.90
2019-04-06T22:09:22.250Z,99.90
2019-04-06T22:11:51.557Z,99.90
2019-04-06T22:14:20.360Z,99.90
2019-04-06T22:16:49.379Z,99.90
2019-04-06T22:19:18.152Z,99.90
2019-04-06T22:21:47.346Z,99.90
2019-04-06T22:24:17.115Z,99.90
2019-04-06T22:26:46.346Z,99.90
2019-04-06T22:29:15.186Z,99.90
2019-04-06T22:31:43.962Z,99.90
2019-04-06T22:34:12.734Z,99.90
2019-04-06T22:36:42.460Z,99.90
2019-04-06T22:39:11.417Z,99.90
2019-04-06T22:41:40.544Z,99.90
2019-04-06T22:44:11.083Z,99.90
2019-04-06T22:46:40.738Z,99.90
2019-04-06T22:49:09.639Z,99.90
2019-04-06T22:51:38.957Z,99.90
2019-04-06T22:54:08.112Z,99.90
2019-04-06T22:56:37.403Z,99.90
2019-04-06T22:59:06.469Z,99.90
2019-04-06T23:01:36.827Z,99.90
2019-04-06T23:04:25.961Z,99.90
2019-04-06T23:07:14.110Z,99.90
2019-04-06T23:09:43.049Z,99.90
2019-04-06T23:12:12.905Z,99.90
2019-04-06T23:14:42.110Z,99.90
2019-04-06T23:17:11.227Z,99.90
2019-04-06T23:19:40.422Z,99.90
2019-04-06T23:22:09.257Z,99.90
2019-04-06T23:24:38.604Z,99.90
2019-04-06T23:27:07.822Z,99.90
2019-04-06T23:29:37.266Z,99.90
2019-04-06T23:32:08.101Z,99.90
2019-04-06T23:34:37.530Z,99.90
2019-04-06T23:37:06.380Z,99.90
2019-04-06T23:39:35.169Z,99.90
2019-04-06T23:42:04.604Z,99.90
2019-04-06T23:44:33.878Z,99.90
2019-04-06T23:47:03.226Z,99.90
2019-04-06T23:49:32.719Z,99.90
2019-04-06T23:52:01.603Z,99.90
2019-04-06T23:54:30.384Z,99.90
2019-04-06T23:56:59.301Z,99.90
2019-04-06T23:59:28.127Z,99.90
